KHRL

Valley International Airport

Harlingen, Texas, USA
METAR KHRL 182228Z 23008KT 1 1/2SM +TSRA BR FEW005 BKN017 OVC050 24/24 A2982 RMK AO2 WSHFT 2152 LTG DSNT NE AND S AND SW P0116 T02440244
Observed Flight Rules
Jun-18 @ 22:28 UTC (17 minutes ago) Instrument Flight Rules
Wind Visibility Clouds Conditions
230° at 8 knots 1 1/2 miles
  • Few at 500' AGL
  • Broken at 1,700' AGL
  • Overcast at 5,000' AGL
  • Heavy Thunderstorm
  • Heavy Rain
  • Mist
Temperatures Readings Precipitation
Current 24°C / 75°F
Dewpoint 24°C / 75°F
Humidity 100%
Altimeter 29.82" Hg
Pressure 1010 hPa
Elevation 10
Current Rain 1.16
METAR KHRL 182228Z 23008KT 1 1/2SM +TSRA BR FEW005 BKN017 OVC050 24/24 A2982 RMK AO2 WSHFT 2152 LTG DSNT NE AND S AND SW P0116 T02440244
Observed Flight Rules
Jun-18 @ 22:28 UTC
(17 minutes ago)
IFR
Wind Visibility
230° at 8 knots 1 1/2 miles
Clouds
  • Few at 500' AGL
  • Broken at 1,700' AGL
  • Overcast at 5,000' AGL
Conditions
  • Heavy Thunderstorm
  • Heavy Rain
  • Mist
Temperature Dewpoint
24°C / 75°F 24°C / 75°F
Humidity Altimeter Pressure
100% 29.82" Hg 1010 hPa
Current Rain
1.16